Arklow River — PBFX — position and weather

sailwx.info

Track history (hours):
 
Tides and Currents Weather Stations Pressure Air Temp Water Temp Dewpoint Dewpoint Depression Visibility Wind Speed Wind Dir Waves Ship Positions

Arklow River

Last reported at 2018-Jan-22 06:31 UTC. Time now 2018-Jan-22 06:42 UTC.
Position N 51°28' E 003°40'.

Length 32 m; draft 5.4 m.

Type: Tug. MMSI: 244790899.

Date/timePositionNaut miles runAvg speedWind from/ knotsBaromVisibWave heightAir tempDewpointWater temp
2018-Jan-22 06:31N 51°28' E 003°40'0 0.0
2018-Jan-22 06:00N 51°28' E 003°40'0 0.0
2018-Jan-22 05:31N 51°28' E 003°40'0 0.0
2018-Jan-22 05:01N 51°28' E 003°40'0 0.0
2018-Jan-22 04:31N 51°28' E 003°40'0 0.0
2018-Jan-22 04:00N 51°28' E 003°40'0 0.0
2018-Jan-22 03:30N 51°28' E 003°40'0 0.0
2018-Jan-22 03:01N 51°28' E 003°40'0 0.0
2018-Jan-22 02:31N 51°28' E 003°40'0 0.0
2018-Jan-22 02:01N 51°28' E 003°40'0 0.0
2018-Jan-22 01:31N 51°28' E 003°40'0 0.0
2018-Jan-22 01:00N 51°28' E 003°40'0 0.0
2018-Jan-22 00:29N 51°28' E 003°40'0 0.0
2018-Jan-22 00:00N 51°28' E 003°40'0 0.0
2018-Jan-21 23:30N 51°28' E 003°40'0 0.0
2018-Jan-21 23:00N 51°28' E 003°40'0 0.0
2018-Jan-21 22:30N 51°28' E 003°40'3 5.7
2018-Jan-21 21:59N 51°26' E 003°36'4 8.6
2018-Jan-21 21:30N 51°28' E 003°30'5 9.8
2018-Jan-21 21:01N 51°32' E 003°25'4 8.9
2018-Jan-21 20:30N 51°36' E 003°22'5 9.4
2018-Jan-21 20:00N 51°40' E 003°19'5 9.0
2018-Jan-21 19:29N 51°45' E 003°18'5 1.6
2018-Jan-21 16:25N 51°49' E 003°20'0 0.0
2018-Jan-21 15:51N 51°49' E 003°20'22 7.3
2018-Jan-21 12:52N 51°29' E 003°30'3 8.5
2018-Jan-21 12:30N 51°26' E 003°34'4 9.0
2018-Jan-21 12:01N 51°27' E 003°41'0 0.7
2018-Jan-21 11:30N 51°27' E 003°40'0 0.0
2018-Jan-21 11:01N 51°27' E 003°40'1 1.6
2018-Jan-21 10:30N 51°26' E 003°41'1 2.5
2018-Jan-21 10:00N 51°28' E 003°40'0 0.0
2018-Jan-21 09:31N 51°28' E 003°40'0 0.0
2018-Jan-21 09:00N 51°28' E 003°40'0 0.0
2018-Jan-21 08:31N 51°28' E 003°40'0 0.0
2018-Jan-21 08:00N 51°28' E 003°40'0 0.0
2018-Jan-21 07:31N 51°28' E 003°40'0 0.0
2018-Jan-21 07:01N 51°28' E 003°40'0 0.0
2018-Jan-21 06:30N 51°28' E 003°40'0 0.0
2018-Jan-21 06:01N 51°28' E 003°40'0 0.0
2018-Jan-21 05:29N 51°28' E 003°40'0 0.0
2018-Jan-21 05:00N 51°28' E 003°40'0 0.0
2018-Jan-21 04:31N 51°28' E 003°40'0 0.0
2018-Jan-21 04:00N 51°28' E 003°40'0 0.0
2018-Jan-21 03:30N 51°28' E 003°40'0 0.0
2018-Jan-21 03:00N 51°28' E 003°40'0 0.0
2018-Jan-21 02:30N 51°28' E 003°40'0 0.0
2018-Jan-21 02:01N 51°28' E 003°40'0 0.0
2018-Jan-21 01:30N 51°28' E 003°40'0 0.0
2018-Jan-21 01:01N 51°28' E 003°40'0 0.0
2018-Jan-21 00:30N 51°28' E 003°40'0 0.0
2018-Jan-21 00:01N 51°28' E 003°40'0 0.0
2018-Jan-20 23:31N 51°28' E 003°40'0 0.0
2018-Jan-20 23:00N 51°28' E 003°40'0 0.0
2018-Jan-20 22:29N 51°28' E 003°40'0 0.0
2018-Jan-20 22:01N 51°28' E 003°40'0 0.0
2018-Jan-20 21:31N 51°28' E 003°40'0 0.0
2018-Jan-20 21:01N 51°28' E 003°40'2 3.2
2018-Jan-20 20:31N 51°27' E 003°43'0 0.7
2018-Jan-20 20:00N 51°27' E 003°43'2 3.5
2018-Jan-20 19:29N 51°28' E 003°40'0 0.0
2018-Jan-20 19:01N 51°28' E 003°40'0 0.0
2018-Jan-20 18:30N 51°28' E 003°40'0 0.0
2018-Jan-20 17:58N 51°28' E 003°40'0 0.0
2018-Jan-20 17:31N 51°28' E 003°40'0 0.0
2018-Jan-20 17:00N 51°28' E 003°40'0 0.0
2018-Jan-20 16:31N 51°28' E 003°40'1 1.4
2018-Jan-20 16:00N 51°27' E 003°42'1 2.1
2018-Jan-20 15:30N 51°27' E 003°43'2 3.6
2018-Jan-20 15:00N 51°28' E 003°40'0 0.0
2018-Jan-20 14:31N 51°28' E 003°40'4 8.6
2018-Jan-20 14:01N 51°26' E 003°34'713.0
2018-Jan-20 13:30N 51°31' E 003°26'611.9
2018-Jan-20 13:00N 51°36' E 003°22'510.6
2018-Jan-20 12:30N 51°37' E 003°14'510.0
2018-Jan-20 11:59N 51°37' E 003°06'1 1.1
2018-Jan-20 11:02N 51°37' E 003°04'0 6.2
2018-Jan-20 10:58N 51°38' E 003°05'18 4.4
2018-Jan-20 06:50N 51°28' E 003°30'2 6.2
2018-Jan-20 06:26N 51°27' E 003°33'3 7.2
2018-Jan-20 05:57N 51°26' E 003°39'2 4.7
2018-Jan-20 05:29N 51°28' E 003°42'1 1.5
2018-Jan-20 04:59N 51°28' E 003°42'0 0.0
2018-Jan-20 04:20N 51°28' E 003°42'0 0.1
2018-Jan-20 03:55N 51°28' E 003°42'0 0.0
2018-Jan-20 03:25N 51°28' E 003°42'0 0.0
2018-Jan-20 02:49N 51°28' E 003°42'0 0.0
2018-Jan-20 02:25N 51°28' E 003°42'0 0.0
2018-Jan-20 01:49N 51°28' E 003°42'0 0.0
2018-Jan-20 01:19N 51°28' E 003°42'0 0.0
2018-Jan-20 00:49N 51°28' E 003°42'0 0.0
2018-Jan-20 00:25N 51°28' E 003°42'0 0.0
2018-Jan-19 23:55N 51°28' E 003°42'0 0.0
2018-Jan-19 23:22N 51°28' E 003°42'0 0.0
2018-Jan-19 22:55N 51°28' E 003°42'0 0.0
2018-Jan-19 22:19N 51°28' E 003°42'0 0.0
2018-Jan-19 21:58N 51°28' E 003°42'0 0.0
2018-Jan-19 21:25N 51°28' E 003°42'0 0.0
2018-Jan-19 20:58N 51°28' E 003°42'0 0.0
2018-Jan-19 20:28N 51°28' E 003°42'0 0.0
2018-Jan-19 19:55N 51°28' E 003°42'0 0.0
2018-Jan-19 19:28N 51°28' E 003°42'0 0.0
2018-Jan-19 18:58N 51°28' E 003°42'0 0.0
2018-Jan-19 18:28N 51°28' E 003°42'0 0.0
2018-Jan-19 17:55N 51°28' E 003°42'1 1.3
2018-Jan-19 17:30N 51°28' E 003°42'1 2.2
2018-Jan-19 17:00N 51°28' E 003°40'0 0.0
2018-Jan-19 16:27N 51°28' E 003°40'0 0.0
2018-Jan-19 16:00N 51°28' E 003°40'0 0.0
2018-Jan-19 15:30N 51°28' E 003°40'0 0.0
2018-Jan-19 15:00N 51°28' E 003°40'0 0.0
2018-Jan-19 14:30N 51°28' E 003°40'0 0.0
2018-Jan-19 14:00N 51°28' E 003°40'0 0.0
2018-Jan-19 13:30N 51°28' E 003°40'0 0.0
2018-Jan-19 12:57N 51°28' E 003°40'0 0.0
2018-Jan-19 12:26N 51°28' E 003°40'0 0.0
2018-Jan-19 11:56N 51°28' E 003°40'0 0.0
2018-Jan-19 11:27N 51°28' E 003°40'0 0.0
2018-Jan-19 10:57N 51°28' E 003°40'0 0.1
2018-Jan-19 10:27N 51°28' E 003°40'0 0.0
2018-Jan-19 09:39N 51°28' E 003°40'0 0.2
2018-Jan-19 09:27N 51°28' E 003°40'0 0.9
2018-Jan-19 08:55N 51°28' E 003°41'3 7.2
2018-Jan-19 08:30N 51°26' E 003°37'2 4.7
2018-Jan-19 07:59N 51°28' E 003°40'0 0.0
2018-Jan-19 07:29N 51°28' E 003°40'0 0.0
2018-Jan-19 06:59N 51°28' E 003°40'0 0.0
2018-Jan-19 06:26N 51°28' E 003°40'0 0.0
2018-Jan-19 05:59N 51°28' E 003°40'0 0.0
2018-Jan-19 05:23N 51°28' E 003°40'0 0.0
2018-Jan-19 04:59N 51°28' E 003°40'0 0.0
2018-Jan-19 04:29N 51°28' E 003°40'0 0.0
2018-Jan-19 03:59N 51°28' E 003°40'0 0.0
2018-Jan-19 03:26N 51°28' E 003°40'0 0.0
2018-Jan-19 02:59N 51°28' E 003°40'0 0.0
2018-Jan-19 02:29N 51°28' E 003°40'0 0.0
2018-Jan-19 01:53N 51°28' E 003°40'0 0.0
2018-Jan-19 01:29N 51°28' E 003°40'0 0.0
2018-Jan-19 00:59N 51°28' E 003°40'0 0.0
2018-Jan-19 00:29N 51°28' E 003°40'0 0.0
2018-Jan-18 23:59N 51°28' E 003°40'0 0.0
2018-Jan-18 23:29N 51°28' E 003°40'0 0.0
2018-Jan-18 22:59N 51°28' E 003°40'0 0.0
2018-Jan-18 22:29N 51°28' E 003°40'0 0.0
2018-Jan-18 21:56N 51°28' E 003°40'0 0.0
2018-Jan-18 21:26N 51°28' E 003°40'0 0.0
2018-Jan-18 20:53N 51°28' E 003°40'0 0.0
2018-Jan-18 20:29N 51°28' E 003°40'0 0.0
2018-Jan-18 19:59N 51°28' E 003°40'0 0.0
2018-Jan-18 19:29N 51°28' E 003°40'0 0.0
2018-Jan-18 18:59N 51°28' E 003°40'0 0.0
2018-Jan-18 18:23N 51°28' E 003°40'0 0.0
2018-Jan-18 17:59N 51°28' E 003°40'0 0.0
2018-Jan-18 17:26N 51°28' E 003°40'0 0.0
2018-Jan-18 16:59N 51°28' E 003°40'0 0.0
2018-Jan-18 16:17N 51°28' E 003°40'0 0.0
2018-Jan-18 15:50N 51°28' E 003°40'0 0.0
2018-Jan-18 15:29N 51°28' E 003°40'0 0.0
2018-Jan-18 14:59N 51°28' E 003°40'0 0.0
2018-Jan-18 14:29N 51°28' E 003°40'0 0.0
2018-Jan-18 13:59N 51°28' E 003°40'0 0.4
2018-Jan-18 13:29N 51°27' E 003°41'0 0.1
2018-Jan-18 12:47N 51°27' E 003°40'0 0.0
2018-Jan-18 12:23N 51°27' E 003°40'0 0.0
2018-Jan-18 11:59N 51°27' E 003°40'0 0.0
2018-Jan-18 11:29N 51°27' E 003°40'0 0.0
2018-Jan-18 10:59N 51°27' E 003°40'0 0.0
2018-Jan-18 10:23N 51°27' E 003°40'0 0.0
2018-Jan-18 09:53N 51°27' E 003°40'0 0.0
2018-Jan-18 09:23N 51°27' E 003°40'0 0.0
2018-Jan-18 08:53N 51°27' E 003°40'0 0.0
2018-Jan-18 08:29N 51°27' E 003°40'0 0.0
2018-Jan-18 07:59N 51°27' E 003°40'0 0.0
2018-Jan-18 07:17N 51°27' E 003°40'0 0.0
2018-Jan-18 06:59N 51°27' E 003°40'0 0.0
2018-Jan-18 06:23N 51°27' E 003°40'0 0.0
2018-Jan-18 05:59N 51°27' E 003°40'0 0.0
2018-Jan-18 05:29N 51°27' E 003°40'0 0.0
2018-Jan-18 04:59N 51°27' E 003°40'0 0.0
2018-Jan-18 04:29N 51°27' E 003°40'0 0.0
2018-Jan-18 03:59N 51°27' E 003°40'0 0.0
2018-Jan-18 03:29N 51°27' E 003°40'0 0.0
2018-Jan-18 02:59N 51°27' E 003°40'0 0.0
2018-Jan-18 02:23N 51°27' E 003°40'0 0.0
2018-Jan-18 01:53N 51°27' E 003°40'0 0.0
2018-Jan-18 01:29N 51°27' E 003°40'0 0.0
2018-Jan-18 00:47N 51°27' E 003°40'0 0.0
2018-Jan-17 23:53N 51°27' E 003°40'  
2018-Jan-12 14:57N 51°27' E 003°40'0 0.1
2018-Jan-12 14:27N 51°27' E 003°41'0 0.0
2018-Jan-12 13:56N 51°27' E 003°40'0 0.0
2018-Jan-12 13:26N 51°27' E 003°41'0 0.0
2018-Jan-12 12:50N 51°27' E 003°40'0 0.0
2018-Jan-12 12:26N 51°27' E 003°40'0 0.0
2018-Jan-12 11:50N 51°27' E 003°40'0 0.0
2018-Jan-12 11:26N 51°27' E 003°40'0 0.0
2018-Jan-12 10:55N 51°27' E 003°40'0 0.0
2018-Jan-12 10:13N 51°27' E 003°40'0 0.0
2018-Jan-12 09:49N 51°27' E 003°40'0 0.0
2018-Jan-12 09:13N 51°27' E 003°40'0 0.0
2018-Jan-12 08:55N 51°27' E 003°40'0 0.0
2018-Jan-12 08:21N 51°27' E 003°41'0 0.0
2018-Jan-12 07:57N 51°27' E 003°41'0 0.0
2018-Jan-12 07:27N 51°27' E 003°40'0 0.0
2018-Jan-12 06:57N 51°27' E 003°40'  
Track history (hours):
 
Tides and Currents Weather Stations Pressure Air Temp Water Temp Dewpoint Dewpoint Depression Visibility Wind Speed Wind Dir Waves Ship Positions

Arklow River

Last reported at 2018-Jan-22 06:31 UTC. Time now 2018-Jan-22 06:42 UTC.
Position N 51°28' E 003°40'.

Length 32 m; draft 5.4 m.

Type: Tug. MMSI: 244790899.

Date/timePositionNaut miles runAvg speedWind from/ knotsBaromVisibWave heightAir tempDewpointWater temp
2018-Jan-22 06:31N 51°28' E 003°40'0 0.0
2018-Jan-22 06:00N 51°28' E 003°40'0 0.0
2018-Jan-22 05:31N 51°28' E 003°40'0 0.0
2018-Jan-22 05:01N 51°28' E 003°40'0 0.0
2018-Jan-22 04:31N 51°28' E 003°40'0 0.0
2018-Jan-22 04:00N 51°28' E 003°40'0 0.0
2018-Jan-22 03:30N 51°28' E 003°40'0 0.0
2018-Jan-22 03:01N 51°28' E 003°40'0 0.0
2018-Jan-22 02:31N 51°28' E 003°40'0 0.0
2018-Jan-22 02:01N 51°28' E 003°40'0 0.0
2018-Jan-22 01:31N 51°28' E 003°40'0 0.0
2018-Jan-22 01:00N 51°28' E 003°40'0 0.0
2018-Jan-22 00:29N 51°28' E 003°40'0 0.0
2018-Jan-22 00:00N 51°28' E 003°40'0 0.0
2018-Jan-21 23:30N 51°28' E 003°40'0 0.0
2018-Jan-21 23:00N 51°28' E 003°40'0 0.0
2018-Jan-21 22:30N 51°28' E 003°40'3 5.7
2018-Jan-21 21:59N 51°26' E 003°36'4 8.6
2018-Jan-21 21:30N 51°28' E 003°30'5 9.8
2018-Jan-21 21:01N 51°32' E 003°25'4 8.9
2018-Jan-21 20:30N 51°36' E 003°22'5 9.4
2018-Jan-21 20:00N 51°40' E 003°19'5 9.0
2018-Jan-21 19:29N 51°45' E 003°18'5 1.6
2018-Jan-21 16:25N 51°49' E 003°20'0 0.0
2018-Jan-21 15:51N 51°49' E 003°20'22 7.3
2018-Jan-21 12:52N 51°29' E 003°30'3 8.5
2018-Jan-21 12:30N 51°26' E 003°34'4 9.0
2018-Jan-21 12:01N 51°27' E 003°41'0 0.7
2018-Jan-21 11:30N 51°27' E 003°40'0 0.0
2018-Jan-21 11:01N 51°27' E 003°40'1 1.6
2018-Jan-21 10:30N 51°26' E 003°41'1 2.5
2018-Jan-21 10:00N 51°28' E 003°40'0 0.0
2018-Jan-21 09:31N 51°28' E 003°40'0 0.0
2018-Jan-21 09:00N 51°28' E 003°40'0 0.0
2018-Jan-21 08:31N 51°28' E 003°40'0 0.0
2018-Jan-21 08:00N 51°28' E 003°40'0 0.0
2018-Jan-21 07:31N 51°28' E 003°40'0 0.0
2018-Jan-21 07:01N 51°28' E 003°40'0 0.0
2018-Jan-21 06:30N 51°28' E 003°40'0 0.0
2018-Jan-21 06:01N 51°28' E 003°40'0 0.0
2018-Jan-21 05:29N 51°28' E 003°40'0 0.0
2018-Jan-21 05:00N 51°28' E 003°40'0 0.0
2018-Jan-21 04:31N 51°28' E 003°40'0 0.0
2018-Jan-21 04:00N 51°28' E 003°40'0 0.0
2018-Jan-21 03:30N 51°28' E 003°40'0 0.0
2018-Jan-21 03:00N 51°28' E 003°40'0 0.0
2018-Jan-21 02:30N 51°28' E 003°40'0 0.0
2018-Jan-21 02:01N 51°28' E 003°40'0 0.0
2018-Jan-21 01:30N 51°28' E 003°40'0 0.0
2018-Jan-21 01:01N 51°28' E 003°40'0 0.0
2018-Jan-21 00:30N 51°28' E 003°40'0 0.0
2018-Jan-21 00:01N 51°28' E 003°40'0 0.0
2018-Jan-20 23:31N 51°28' E 003°40'0 0.0
2018-Jan-20 23:00N 51°28' E 003°40'0 0.0
2018-Jan-20 22:29N 51°28' E 003°40'0 0.0
2018-Jan-20 22:01N 51°28' E 003°40'0 0.0
2018-Jan-20 21:31N 51°28' E 003°40'0 0.0
2018-Jan-20 21:01N 51°28' E 003°40'2 3.2
2018-Jan-20 20:31N 51°27' E 003°43'0 0.7
2018-Jan-20 20:00N 51°27' E 003°43'2 3.5
2018-Jan-20 19:29N 51°28' E 003°40'0 0.0
2018-Jan-20 19:01N 51°28' E 003°40'0 0.0
2018-Jan-20 18:30N 51°28' E 003°40'0 0.0
2018-Jan-20 17:58N 51°28' E 003°40'0 0.0
2018-Jan-20 17:31N 51°28' E 003°40'0 0.0
2018-Jan-20 17:00N 51°28' E 003°40'0 0.0
2018-Jan-20 16:31N 51°28' E 003°40'1 1.4
2018-Jan-20 16:00N 51°27' E 003°42'1 2.1
2018-Jan-20 15:30N 51°27' E 003°43'2 3.6
2018-Jan-20 15:00N 51°28' E 003°40'0 0.0
2018-Jan-20 14:31N 51°28' E 003°40'4 8.6
2018-Jan-20 14:01N 51°26' E 003°34'713.0
2018-Jan-20 13:30N 51°31' E 003°26'611.9
2018-Jan-20 13:00N 51°36' E 003°22'510.6
2018-Jan-20 12:30N 51°37' E 003°14'510.0
2018-Jan-20 11:59N 51°37' E 003°06'1 1.1
2018-Jan-20 11:02N 51°37' E 003°04'0 6.2
2018-Jan-20 10:58N 51°38' E 003°05'18 4.4
2018-Jan-20 06:50N 51°28' E 003°30'2 6.2
2018-Jan-20 06:26N 51°27' E 003°33'3 7.2
2018-Jan-20 05:57N 51°26' E 003°39'2 4.7
2018-Jan-20 05:29N 51°28' E 003°42'1 1.5
2018-Jan-20 04:59N 51°28' E 003°42'0 0.0
2018-Jan-20 04:20N 51°28' E 003°42'0 0.1
2018-Jan-20 03:55N 51°28' E 003°42'0 0.0
2018-Jan-20 03:25N 51°28' E 003°42'0 0.0
2018-Jan-20 02:49N 51°28' E 003°42'0 0.0
2018-Jan-20 02:25N 51°28' E 003°42'0 0.0
2018-Jan-20 01:49N 51°28' E 003°42'0 0.0
2018-Jan-20 01:19N 51°28' E 003°42'0 0.0
2018-Jan-20 00:49N 51°28' E 003°42'0 0.0
2018-Jan-20 00:25N 51°28' E 003°42'0 0.0
2018-Jan-19 23:55N 51°28' E 003°42'0 0.0
2018-Jan-19 23:22N 51°28' E 003°42'0 0.0
2018-Jan-19 22:55N 51°28' E 003°42'0 0.0
2018-Jan-19 22:19N 51°28' E 003°42'0 0.0
2018-Jan-19 21:58N 51°28' E 003°42'0 0.0
2018-Jan-19 21:25N 51°28' E 003°42'0 0.0
2018-Jan-19 20:58N 51°28' E 003°42'0 0.0
2018-Jan-19 20:28N 51°28' E 003°42'0 0.0
2018-Jan-19 19:55N 51°28' E 003°42'0 0.0
2018-Jan-19 19:28N 51°28' E 003°42'0 0.0
2018-Jan-19 18:58N 51°28' E 003°42'0 0.0
2018-Jan-19 18:28N 51°28' E 003°42'0 0.0
2018-Jan-19 17:55N 51°28' E 003°42'1 1.3
2018-Jan-19 17:30N 51°28' E 003°42'1 2.2
2018-Jan-19 17:00N 51°28' E 003°40'0 0.0
2018-Jan-19 16:27N 51°28' E 003°40'0 0.0
2018-Jan-19 16:00N 51°28' E 003°40'0 0.0
2018-Jan-19 15:30N 51°28' E 003°40'0 0.0
2018-Jan-19 15:00N 51°28' E 003°40'0 0.0
2018-Jan-19 14:30N 51°28' E 003°40'0 0.0
2018-Jan-19 14:00N 51°28' E 003°40'0 0.0
2018-Jan-19 13:30N 51°28' E 003°40'0 0.0
2018-Jan-19 12:57N 51°28' E 003°40'0 0.0
2018-Jan-19 12:26N 51°28' E 003°40'0 0.0
2018-Jan-19 11:56N 51°28' E 003°40'0 0.0
2018-Jan-19 11:27N 51°28' E 003°40'0 0.0
2018-Jan-19 10:57N 51°28' E 003°40'0 0.1
2018-Jan-19 10:27N 51°28' E 003°40'0 0.0
2018-Jan-19 09:39N 51°28' E 003°40'0 0.2
2018-Jan-19 09:27N 51°28' E 003°40'0 0.9
2018-Jan-19 08:55N 51°28' E 003°41'3 7.2
2018-Jan-19 08:30N 51°26' E 003°37'2 4.7
2018-Jan-19 07:59N 51°28' E 003°40'0 0.0
2018-Jan-19 07:29N 51°28' E 003°40'0 0.0
2018-Jan-19 06:59N 51°28' E 003°40'0 0.0
2018-Jan-19 06:26N 51°28' E 003°40'0 0.0
2018-Jan-19 05:59N 51°28' E 003°40'0 0.0
2018-Jan-19 05:23N 51°28' E 003°40'0 0.0
2018-Jan-19 04:59N 51°28' E 003°40'0 0.0
2018-Jan-19 04:29N 51°28' E 003°40'0 0.0
2018-Jan-19 03:59N 51°28' E 003°40'0 0.0
2018-Jan-19 03:26N 51°28' E 003°40'0 0.0
2018-Jan-19 02:59N 51°28' E 003°40'0 0.0
2018-Jan-19 02:29N 51°28' E 003°40'0 0.0
2018-Jan-19 01:53N 51°28' E 003°40'0 0.0
2018-Jan-19 01:29N 51°28' E 003°40'0 0.0
2018-Jan-19 00:59N 51°28' E 003°40'0 0.0
2018-Jan-19 00:29N 51°28' E 003°40'0 0.0
2018-Jan-18 23:59N 51°28' E 003°40'0 0.0
2018-Jan-18 23:29N 51°28' E 003°40'0 0.0
2018-Jan-18 22:59N 51°28' E 003°40'0 0.0
2018-Jan-18 22:29N 51°28' E 003°40'0 0.0
2018-Jan-18 21:56N 51°28' E 003°40'0 0.0
2018-Jan-18 21:26N 51°28' E 003°40'0 0.0
2018-Jan-18 20:53N 51°28' E 003°40'0 0.0
2018-Jan-18 20:29N 51°28' E 003°40'0 0.0
2018-Jan-18 19:59N 51°28' E 003°40'0 0.0
2018-Jan-18 19:29N 51°28' E 003°40'0 0.0
2018-Jan-18 18:59N 51°28' E 003°40'0 0.0
2018-Jan-18 18:23N 51°28' E 003°40'0 0.0
2018-Jan-18 17:59N 51°28' E 003°40'0 0.0
2018-Jan-18 17:26N 51°28' E 003°40'0 0.0
2018-Jan-18 16:59N 51°28' E 003°40'0 0.0
2018-Jan-18 16:17N 51°28' E 003°40'0 0.0
2018-Jan-18 15:50N 51°28' E 003°40'0 0.0
2018-Jan-18 15:29N 51°28' E 003°40'0 0.0
2018-Jan-18 14:59N 51°28' E 003°40'0 0.0
2018-Jan-18 14:29N 51°28' E 003°40'0 0.0
2018-Jan-18 13:59N 51°28' E 003°40'0 0.4
2018-Jan-18 13:29N 51°27' E 003°41'0 0.1
2018-Jan-18 12:47N 51°27' E 003°40'0 0.0
2018-Jan-18 12:23N 51°27' E 003°40'0 0.0
2018-Jan-18 11:59N 51°27' E 003°40'0 0.0
2018-Jan-18 11:29N 51°27' E 003°40'0 0.0
2018-Jan-18 10:59N 51°27' E 003°40'0 0.0
2018-Jan-18 10:23N 51°27' E 003°40'0 0.0
2018-Jan-18 09:53N 51°27' E 003°40'0 0.0
2018-Jan-18 09:23N 51°27' E 003°40'0 0.0
2018-Jan-18 08:53N 51°27' E 003°40'0 0.0
2018-Jan-18 08:29N 51°27' E 003°40'0 0.0
2018-Jan-18 07:59N 51°27' E 003°40'0 0.0
2018-Jan-18 07:17N 51°27' E 003°40'0 0.0
2018-Jan-18 06:59N 51°27' E 003°40'0 0.0
2018-Jan-18 06:23N 51°27' E 003°40'0 0.0
2018-Jan-18 05:59N 51°27' E 003°40'0 0.0
2018-Jan-18 05:29N 51°27' E 003°40'0 0.0
2018-Jan-18 04:59N 51°27' E 003°40'0 0.0
2018-Jan-18 04:29N 51°27' E 003°40'0 0.0
2018-Jan-18 03:59N 51°27' E 003°40'0 0.0
2018-Jan-18 03:29N 51°27' E 003°40'0 0.0
2018-Jan-18 02:59N 51°27' E 003°40'0 0.0
2018-Jan-18 02:23N 51°27' E 003°40'0 0.0
2018-Jan-18 01:53N 51°27' E 003°40'0 0.0
2018-Jan-18 01:29N 51°27' E 003°40'0 0.0
2018-Jan-18 00:47N 51°27' E 003°40'0 0.0
2018-Jan-17 23:53N 51°27' E 003°40'  
2018-Jan-12 14:57N 51°27' E 003°40'0 0.1
2018-Jan-12 14:27N 51°27' E 003°41'0 0.0
2018-Jan-12 13:56N 51°27' E 003°40'0 0.0
2018-Jan-12 13:26N 51°27' E 003°41'0 0.0
2018-Jan-12 12:50N 51°27' E 003°40'0 0.0
2018-Jan-12 12:26N 51°27' E 003°40'0 0.0
2018-Jan-12 11:50N 51°27' E 003°40'0 0.0
2018-Jan-12 11:26N 51°27' E 003°40'0 0.0
2018-Jan-12 10:55N 51°27' E 003°40'0 0.0
2018-Jan-12 10:13N 51°27' E 003°40'0 0.0
2018-Jan-12 09:49N 51°27' E 003°40'0 0.0
2018-Jan-12 09:13N 51°27' E 003°40'0 0.0
2018-Jan-12 08:55N 51°27' E 003°40'0 0.0
2018-Jan-12 08:21N 51°27' E 003°41'0 0.0
2018-Jan-12 07:57N 51°27' E 003°41'0 0.0
2018-Jan-12 07:27N 51°27' E 003°40'0 0.0
2018-Jan-12 06:57N 51°27' E 003°40'  

Dump ship's entire track history